Syre, Minnesota
Current Conditions -  °F | °C
As of 10:35 AM on Thursday 30 Oct 2014 (Local Time) from K3N8 Reporting Station
Overcast Overcast  
Wind Chill: 27°   Ceiling: 11000
Heat Index: 36°   Visibility: 10mi
Dew Point: 33°   Wind: 16mph
Humidity: 86%   Direction: 10°N
Pressure: 30.17"   Gusts: NA
Location:  47.2382°N, 96.2513°W
Report Text: K3N8 301535Z AUTO 01014KT 10SM SCT013 OVC110 02/00 A3017 RMK AO2 T00240003
Loading
Personal Weather Stations






























Interactive Weather Map
Tropical Storm Tracking
New forecast layout! Learn more

10-Day Weather Forecast

Advertisements
Track Severe Weather on mobile